Time,TemperatureF,DewpointF,PressureIn,WindDirection,WindDirectionDegrees,WindSpeedMPH,WindSpeedGustMPH,Humidity,HourlyPrecipIn,Conditions,Clouds,dailyrainin,SolarRadiationWatts/m^2,SoftwareType,DateUTC
2013-02-01 00:00:00,14.6,6.9,30.43,ESE,104,2.0,5.0,71,0.00,,---,0.00,0.00,VWS V14.01,2013-02-01 06:00:00,
2013-02-01 00:02:00,14.0,6.0,30.44,ENE,72,3.0,3.0,70,0.00,,---,0.00,0.00,VWS V14.01,2013-02-01 06:02:00,
2013-02-01 00:07:00,14.0,6.0,30.44,ENE,72,0.0,4.0,70,0.00,,---,0.00,0.00,VWS V14.01,2013-02-01 06:07:00,
2013-02-01 00:12:00,14.1,6.4,30.44,ENE,72,1.0,4.0,71,0.00,,---,0.00,0.00,VWS V14.01,2013-02-01 06:12:00,
2013-02-01 00:17:00,14.3,6.3,30.44,ENE,72,2.0,4.0,70,0.00,,---,0.00,0.00,VWS V14.01,2013-02-01 06:17:00,
2013-02-01 00:22:00,14.3,6.6,30.44,ESE,103,4.0,4.0,71,0.00,,---,0.00,0.00,VWS V14.01,2013-02-01 06:22:00,
2013-02-01 00:27:00,14.3,6.6,30.44,ESE,103,1.0,4.0,71,0.00,,---,0.00,0.00,VWS V14.01,2013-02-01 06:27:00,
2013-02-01 00:30:00,14.3,6.9,30.43,South,184,0.0,5.0,72,0.00,,---,0.00,0.00,VWS V14.01,2013-02-01 06:30:00,
2013-02-01 00:32:00,14.3,6.9,30.44,ESE,103,1.0,2.0,72,0.00,,---,0.00,0.00,VWS V14.01,2013-02-01 06:32:00,
2013-02-01 00:37:00,14.4,7.0,30.44,ESE,103,1.0,4.0,72,0.00,,---,0.00,0.00,VWS V14.01,2013-02-01 06:37:00,
2013-02-01 00:42:00,14.4,6.7,30.44,ESE,103,1.0,5.0,71,0.00,,---,0.00,0.00,VWS V14.01,2013-02-01 06:42:00,
2013-02-01 00:47:00,14.4,6.1,30.44,ESE,103,2.0,5.0,69,0.00,,---,0.00,0.00,VWS V14.01,2013-02-01 06:47:00,
2013-02-01 00:52:00,14.6,6.0,30.44,ESE,103,2.0,5.0,68,0.00,,---,0.00,0.00,VWS V14.01,2013-02-01 06:52:00,
2013-02-01 00:57:00,14.6,6.0,30.43,ESE,103,2.0,5.0,68,0.00,,---,0.00,0.00,VWS V14.01,2013-02-01 06:57:00,
2013-02-01 01:00:00,13.6,6.3,30.42,South,184,0.0,3.0,72,0.00,,---,0.00,0.00,VWS V14.01,2013-02-01 07:00:00,
2013-02-01 01:02:00,14.6,7.2,30.43,ESE,104,1.0,2.0,72,0.00,,---,0.00,0.00,VWS V14.01,2013-02-01 07:02:00,
2013-02-01 01:07:00,14.4,7.3,30.43,South,184,0.0,5.0,73,0.00,,---,0.00,0.00,VWS V14.01,2013-02-01 07:07:00,
2013-02-01 01:12:00,14.4,7.0,30.43,South,184,1.0,5.0,72,0.00,,---,0.00,0.00,VWS V14.01,2013-02-01 07:12:00,
2013-02-01 01:17:00,14.3,6.9,30.43,South,184,1.0,5.0,72,0.00,,---,0.00,0.00,VWS V14.01,2013-02-01 07:17:00,
2013-02-01 01:22:00,14.3,6.9,30.43,South,184,0.0,5.0,72,0.00,,---,0.00,0.00,VWS V14.01,2013-02-01 07:22:00,
2013-02-01 01:27:00,14.3,6.9,30.43,South,184,0.0,5.0,72,0.00,,---,0.00,0.00,VWS V14.01,2013-02-01 07:27:00,
2013-02-01 01:30:00,13.3,6.3,30.41,South,184,0.0,1.0,73,0.00,,---,0.00,0.00,VWS V14.01,2013-02-01 07:30:00,
2013-02-01 01:32:00,14.3,6.6,30.42,South,184,1.0,1.0,71,0.00,,---,0.00,0.00,VWS V14.01,2013-02-01 07:32:00,
2013-02-01 01:37:00,14.3,6.9,30.42,South,184,2.0,2.0,72,0.00,,---,0.00,0.00,VWS V14.01,2013-02-01 07:37:00,
2013-02-01 01:43:00,14.1,6.8,30.42,South,184,3.0,3.0,72,0.00,,---,0.00,0.00,VWS V14.01,2013-02-01 07:43:00,
2013-02-01 01:48:00,13.8,6.5,30.42,South,184,0.0,3.0,72,0.00,,---,0.00,0.00,VWS V14.01,2013-02-01 07:48:00,
2013-02-01 01:53:00,13.8,6.5,30.42,South,184,0.0,3.0,72,0.00,,---,0.00,0.00,VWS V14.01,2013-02-01 07:53:00,
2013-02-01 01:58:00,13.6,6.3,30.42,South,184,0.0,3.0,72,0.00,,---,0.00,0.00,VWS V14.01,2013-02-01 07:58:00,
2013-02-01 02:00:00,12.4,5.4,30.42,WSW,248,4.0,6.0,73,0.00,,---,0.00,0.00,VWS V14.01,2013-02-01 08:00:00,
2013-02-01 02:03:00,13.5,6.2,30.42,South,184,0.0,0.0,72,0.00,,---,0.00,0.00,VWS V14.01,2013-02-01 08:03:00,
2013-02-01 02:08:00,13.3,6.3,30.42,South,184,0.0,0.0,73,0.00,,---,0.00,0.00,VWS V14.01,2013-02-01 08:08:00,
2013-02-01 02:13:00,13.3,6.3,30.42,South,184,0.0,1.0,73,0.00,,---,0.00,0.00,VWS V14.01,2013-02-01 08:13:00,
2013-02-01 02:18:00,13.3,6.6,30.42,South,184,0.0,1.0,74,0.00,,---,0.00,0.00,VWS V14.01,2013-02-01 08:18:00,
2013-02-01 02:23:00,13.1,6.4,30.41,South,184,0.0,1.0,74,0.00,,---,0.00,0.00,VWS V14.01,2013-02-01 08:23:00,
2013-02-01 02:28:00,13.3,6.6,30.41,South,184,0.0,1.0,74,0.00,,---,0.00,0.00,VWS V14.01,2013-02-01 08:28:00,
2013-02-01 02:30:00,12.1,4.8,30.43,SW,217,3.0,6.0,72,0.00,,---,0.00,0.00,VWS V14.01,2013-02-01 08:30:00,
2013-02-01 02:33:00,13.3,6.3,30.42,South,184,2.0,3.0,73,0.00,,---,0.00,0.00,VWS V14.01,2013-02-01 08:33:00,
2013-02-01 02:38:00,13.5,6.5,30.41,South,184,3.0,4.0,73,0.00,,---,0.00,0.00,VWS V14.01,2013-02-01 08:38:00,
2013-02-01 02:43:00,13.1,6.1,30.41,SW,219,3.0,5.0,73,0.00,,---,0.00,0.00,VWS V14.01,2013-02-01 08:43:00,
2013-02-01 02:48:00,12.9,5.9,30.42,WSW,246,3.0,5.0,73,0.00,,---,0.00,0.00,VWS V14.01,2013-02-01 08:48:00,
2013-02-01 02:53:00,12.8,5.8,30.42,West,259,3.0,6.0,73,0.00,,---,0.00,0.00,VWS V14.01,2013-02-01 08:53:00,
2013-02-01 02:58:00,12.4,5.4,30.42,WSW,248,2.0,6.0,73,0.00,,---,0.00,0.00,VWS V14.01,2013-02-01 08:58:00,
2013-02-01 03:00:00,12.4,3.9,30.42,SW,217,0.0,4.0,68,0.00,,---,0.00,0.00,VWS V14.01,2013-02-01 09:00:00,
2013-02-01 03:03:00,12.4,5.4,30.43,SW,229,4.0,6.0,73,0.00,,---,0.00,0.00,VWS V14.01,2013-02-01 09:03:00,
2013-02-01 03:08:00,12.3,5.3,30.43,SW,217,5.0,6.0,73,0.00,,---,0.00,0.00,VWS V14.01,2013-02-01 09:08:00,
2013-02-01 03:13:00,12.1,5.1,30.43,SW,217,1.0,6.0,73,0.00,,---,0.00,0.00,VWS V14.01,2013-02-01 09:13:00,
2013-02-01 03:18:00,12.1,5.1,30.43,SW,217,0.0,6.0,73,0.00,,---,0.00,0.00,VWS V14.01,2013-02-01 09:18:00,
2013-02-01 03:23:00,12.1,4.8,30.42,SW,217,3.0,6.0,72,0.00,,---,0.00,0.00,VWS V14.01,2013-02-01 09:23:00,
2013-02-01 03:28:00,12.1,4.8,30.43,SW,217,2.0,6.0,72,0.00,,---,0.00,0.00,VWS V14.01,2013-02-01 09:28:00,
2013-02-01 03:30:00,11.2,3.7,30.40,SW,217,4.0,4.0,71,0.00,,---,0.00,0.00,VWS V14.01,2013-02-01 09:30:00,
2013-02-01 03:33:00,12.1,4.5,30.43,SW,217,2.0,4.0,71,0.00,,---,0.00,0.00,VWS V14.01,2013-02-01 09:33:00,
2013-02-01 03:38:00,12.3,4.4,30.43,SW,217,1.0,4.0,70,0.00,,---,0.00,0.00,VWS V14.01,2013-02-01 09:38:00,
2013-02-01 03:43:00,12.3,4.1,30.43,SW,217,2.0,4.0,69,0.00,,---,0.00,0.00,VWS V14.01,2013-02-01 09:43:00,
2013-02-01 03:48:00,12.4,3.9,30.43,SW,217,0.0,4.0,68,0.00,,---,0.00,0.00,VWS V14.01,2013-02-01 09:48:00,
2013-02-01 03:53:00,12.3,3.8,30.43,SW,217,2.0,4.0,68,0.00,,---,0.00,0.00,VWS V14.01,2013-02-01 09:53:00,
2013-02-01 03:58:00,12.4,3.9,30.43,SW,217,1.0,4.0,68,0.00,,---,0.00,0.00,VWS V14.01,2013-02-01 09:58:00,
2013-02-01 04:00:00,11.1,4.7,30.40,ESE,106,2.0,5.0,75,0.00,,---,0.00,0.00,VWS V14.01,2013-02-01 10:00:00,
2013-02-01 04:03:00,12.3,3.8,30.42,SW,217,2.0,3.0,68,0.00,,---,0.00,0.00,VWS V14.01,2013-02-01 10:03:00,
2013-02-01 04:08:00,11.9,3.7,30.42,SW,217,3.0,3.0,69,0.00,,---,0.00,0.00,VWS V14.01,2013-02-01 10:08:00,
2013-02-01 04:13:00,11.7,3.5,30.42,SW,217,2.0,4.0,69,0.00,,---,0.00,0.00,VWS V14.01,2013-02-01 10:13:00,
2013-02-01 04:18:00,11.6,3.4,30.42,SW,217,1.0,4.0,69,0.00,,---,0.00,0.00,VWS V14.01,2013-02-01 10:18:00,
2013-02-01 04:23:00,11.6,3.4,30.41,SW,217,2.0,4.0,69,0.00,,---,0.00,0.00,VWS V14.01,2013-02-01 10:23:00,
2013-02-01 04:28:00,11.2,3.3,30.41,SW,217,2.0,4.0,70,0.00,,---,0.00,0.00,VWS V14.01,2013-02-01 10:28:00,
2013-02-01 04:30:00,11.7,5.0,30.40,SSW,198,6.0,6.0,74,0.00,,---,0.00,0.00,VWS V14.01,2013-02-01 10:30:00,
2013-02-01 04:33:00,11.1,3.5,30.41,SW,217,3.0,4.0,71,0.00,,---,0.00,0.00,VWS V14.01,2013-02-01 10:33:00,
2013-02-01 04:38:00,11.1,3.8,30.40,SW,217,4.0,4.0,72,0.00,,---,0.00,0.00,VWS V14.01,2013-02-01 10:38:00,
2013-02-01 04:43:00,11.1,3.8,30.39,SW,217,4.0,4.0,72,0.00,,---,0.00,0.00,VWS V14.01,2013-02-01 10:43:00,
2013-02-01 04:48:00,11.2,4.8,30.40,ESE,106,4.0,5.0,75,0.00,,---,0.00,0.00,VWS V14.01,2013-02-01 10:48:00,
2013-02-01 04:53:00,11.2,4.8,30.40,ESE,106,1.0,5.0,75,0.00,,---,0.00,0.00,VWS V14.01,2013-02-01 10:53:00,
2013-02-01 04:58:00,11.1,4.7,30.41,ESE,106,1.0,5.0,75,0.00,,---,0.00,0.00,VWS V14.01,2013-02-01 10:58:00,
2013-02-01 05:00:00,12.4,5.1,30.40,SW,215,2.0,6.0,72,0.00,,---,0.00,0.00,VWS V14.01,2013-02-01 11:00:00,
2013-02-01 05:03:00,11.2,4.8,30.40,ESE,106,4.0,4.0,75,0.00,,---,0.00,0.00,VWS V14.01,2013-02-01 11:03:00,
2013-02-01 05:08:00,11.4,5.0,30.41,SSW,198,4.0,5.0,75,0.00,,---,0.00,0.00,VWS V14.01,2013-02-01 11:08:00,
2013-02-01 05:13:00,11.4,5.0,30.41,SSW,198,4.0,5.0,75,0.00,,---,0.00,0.00,VWS V14.01,2013-02-01 11:13:00,
2013-02-01 05:18:00,11.6,5.2,30.41,SSW,198,3.0,5.0,75,0.00,,---,0.00,0.00,VWS V14.01,2013-02-01 11:18:00,
2013-02-01 05:23:00,11.6,4.9,30.40,SSW,198,3.0,5.0,74,0.00,,---,0.00,0.00,VWS V14.01,2013-02-01 11:23:00,
2013-02-01 05:28:00,11.7,5.0,30.40,SSW,198,4.0,5.0,74,0.00,,---,0.00,0.00,VWS V14.01,2013-02-01 11:28:00,
2013-02-01 05:30:00,12.1,5.1,30.40,SSW,192,2.0,6.0,73,0.00,,---,0.00,0.00,VWS V14.01,2013-02-01 11:30:00,
2013-02-01 05:34:00,12.1,5.4,30.41,SSW,198,5.0,5.0,74,0.00,,---,0.00,0.00,VWS V14.01,2013-02-01 11:34:00,
2013-02-01 05:39:00,12.3,5.6,30.40,SW,217,4.0,6.0,74,0.00,,---,0.00,0.00,VWS V14.01,2013-02-01 11:39:00,
2013-02-01 05:44:00,12.4,5.4,30.40,SW,217,2.0,6.0,73,0.00,,---,0.00,0.00,VWS V14.01,2013-02-01 11:44:00,
2013-02-01 05:49:00,12.4,5.4,30.40,SW,216,2.0,6.0,73,0.00,,---,0.00,0.00,VWS V14.01,2013-02-01 11:49:00,
2013-02-01 05:54:00,12.4,5.1,30.40,SW,215,4.0,6.0,72,0.00,,---,0.00,0.00,VWS V14.01,2013-02-01 11:54:00,
2013-02-01 05:59:00,12.4,5.1,30.40,SW,215,3.0,6.0,72,0.00,,---,0.00,0.00,VWS V14.01,2013-02-01 11:59:00,
2013-02-01 06:00:00,12.6,5.6,30.39,SSW,192,4.0,6.0,73,0.00,,---,0.00,0.00,VWS V14.01,2013-02-01 12:00:00,
2013-02-01 06:04:00,12.4,5.1,30.40,SSW,193,4.0,6.0,72,0.00,,---,0.00,0.00,VWS V14.01,2013-02-01 12:04:00,
2013-02-01 06:09:00,12.4,5.1,30.40,SSW,193,3.0,6.0,72,0.00,,---,0.00,0.00,VWS V14.01,2013-02-01 12:09:00,
2013-02-01 06:14:00,12.4,5.1,30.40,SSW,193,4.0,6.0,72,0.00,,---,0.00,0.00,VWS V14.01,2013-02-01 12:14:00,
2013-02-01 06:19:00,12.3,5.0,30.40,SSW,193,6.0,6.0,72,0.00,,---,0.00,0.00,VWS V14.01,2013-02-01 12:19:00,
2013-02-01 06:24:00,12.3,5.3,30.39,SSW,192,3.0,6.0,73,0.00,,---,0.00,0.00,VWS V14.01,2013-02-01 12:24:00,
2013-02-01 06:29:00,12.1,4.8,30.39,SSW,192,3.0,6.0,72,0.00,,---,0.00,0.00,VWS V14.01,2013-02-01 12:29:00,
2013-02-01 06:30:00,13.6,5.7,30.40,SSW,197,7.0,11.0,70,0.00,,---,0.00,5.00,VWS V14.01,2013-02-01 12:30:00,
2013-02-01 06:34:00,11.9,4.9,30.39,SSW,192,3.0,5.0,73,0.00,,---,0.00,0.00,VWS V14.01,2013-02-01 12:34:00,
2013-02-01 06:39:00,11.9,4.9,30.40,SSW,192,3.0,5.0,73,0.00,,---,0.00,0.00,VWS V14.01,2013-02-01 12:39:00,
2013-02-01 06:44:00,11.9,4.9,30.39,SSW,192,4.0,5.0,73,0.00,,---,0.00,0.00,VWS V14.01,2013-02-01 12:44:00,
2013-02-01 06:49:00,12.1,5.1,30.40,SSW,192,2.0,6.0,73,0.00,,---,0.00,0.00,VWS V14.01,2013-02-01 12:49:00,
2013-02-01 06:54:00,12.3,5.3,30.39,SSW,192,3.0,6.0,73,0.00,,---,0.00,0.00,VWS V14.01,2013-02-01 12:54:00,
2013-02-01 06:59:00,12.6,5.6,30.39,SSW,192,3.0,6.0,73,0.00,,---,0.00,0.00,VWS V14.01,2013-02-01 12:59:00,
2013-02-01 07:00:00,15.1,6.5,30.39,South,182,6.0,15.0,68,0.00,,---,0.00,18.00,VWS V14.01,2013-02-01 13:00:00,
2013-02-01 07:04:00,12.9,5.6,30.40,SSW,192,4.0,5.0,72,0.00,,---,0.00,0.00,VWS V14.01,2013-02-01 13:04:00,
2013-02-01 07:09:00,13.3,6.0,30.39,SSW,199,3.0,9.0,72,0.00,,---,0.00,0.00,VWS V14.01,2013-02-01 13:09:00,
2013-02-01 07:14:00,13.5,5.9,30.40,SSW,194,5.0,10.0,71,0.00,,---,0.00,0.00,VWS V14.01,2013-02-01 13:14:00,
2013-02-01 07:19:00,13.5,5.9,30.40,SSW,212,3.0,11.0,71,0.00,,---,0.00,0.00,VWS V14.01,2013-02-01 13:19:00,
2013-02-01 07:24:00,13.6,6.0,30.40,SSW,198,4.0,11.0,71,0.00,,---,0.00,0.00,VWS V14.01,2013-02-01 13:24:00,
2013-02-01 07:29:00,13.6,5.7,30.40,South,188,10.0,11.0,70,0.00,,---,0.00,5.00,VWS V14.01,2013-02-01 13:29:00,
2013-02-01 07:30:00,17.0,6.9,30.38,WSW,244,4.0,14.0,64,0.00,,---,0.00,49.00,VWS V14.01,2013-02-01 13:30:00,
2013-02-01 07:34:00,13.8,5.8,30.40,SSW,202,7.0,11.0,70,0.00,,---,0.00,5.00,VWS V14.01,2013-02-01 13:34:00,
2013-02-01 07:39:00,14.0,6.0,30.40,SSE,167,9.0,13.0,70,0.00,,---,0.00,7.00,VWS V14.01,2013-02-01 13:39:00,
2013-02-01 07:44:00,14.3,6.0,30.39,South,185,7.0,13.0,69,0.00,,---,0.00,12.00,VWS V14.01,2013-02-01 13:44:00,
2013-02-01 07:49:00,14.6,6.3,30.40,South,190,8.0,15.0,69,0.00,,---,0.00,9.00,VWS V14.01,2013-02-01 13:49:00,
2013-02-01 07:54:00,14.6,6.3,30.39,SSW,194,9.0,15.0,69,0.00,,---,0.00,9.00,VWS V14.01,2013-02-01 13:54:00,
2013-02-01 07:59:00,15.1,6.5,30.39,South,182,7.0,15.0,68,0.00,,---,0.00,16.00,VWS V14.01,2013-02-01 13:59:00,
2013-02-01 08:00:00,18.1,7.3,30.38,SSW,211,12.0,17.0,62,0.00,,---,0.00,100.00,VWS V14.01,2013-02-01 14:00:00,
2013-02-01 08:04:00,15.4,6.7,30.39,South,188,10.0,12.0,68,0.00,,---,0.00,21.00,VWS V14.01,2013-02-01 14:04:00,
2013-02-01 08:09:00,15.7,6.7,30.39,SW,223,8.0,13.0,67,0.00,,---,0.00,26.00,VWS V14.01,2013-02-01 14:09:00,
2013-02-01 08:14:00,16.1,6.8,30.39,South,170,6.0,14.0,66,0.00,,---,0.00,32.00,VWS V14.01,2013-02-01 14:14:00,
2013-02-01 08:19:00,16.4,7.0,30.39,South,170,10.0,14.0,66,0.00,,---,0.00,37.00,VWS V14.01,2013-02-01 14:19:00,
2013-02-01 08:24:00,16.7,7.0,30.38,SSW,207,10.0,14.0,65,0.00,,---,0.00,42.00,VWS V14.01,2013-02-01 14:24:00,
2013-02-01 08:29:00,17.0,6.9,30.38,SW,225,3.0,14.0,64,0.00,,---,0.00,47.00,VWS V14.01,2013-02-01 14:29:00,
2013-02-01 08:30:00,19.7,7.7,30.38,SSW,203,11.0,17.0,59,0.00,,---,0.00,146.00,VWS V14.01,2013-02-01 14:30:00,
2013-02-01 08:34:00,17.3,7.2,30.38,SSW,211,11.0,13.0,64,0.00,,---,0.00,56.00,VWS V14.01,2013-02-01 14:34:00,
2013-02-01 08:39:00,17.5,7.1,30.39,South,184,6.0,13.0,63,0.00,,---,0.00,63.00,VWS V14.01,2013-02-01 14:39:00,
2013-02-01 08:44:00,17.8,7.3,30.38,WSW,252,6.0,13.0,63,0.00,,---,0.00,69.00,VWS V14.01,2013-02-01 14:44:00,
2013-02-01 08:49:00,17.8,7.0,30.38,SW,229,4.0,14.0,62,0.00,,---,0.00,81.00,VWS V14.01,2013-02-01 14:49:00,
2013-02-01 08:54:00,18.0,7.2,30.38,SSW,200,3.0,14.0,62,0.00,,---,0.00,90.00,VWS V14.01,2013-02-01 14:54:00,
2013-02-01 08:59:00,18.1,7.3,30.38,SW,222,11.0,17.0,62,0.00,,---,0.00,100.00,VWS V14.01,2013-02-01 14:59:00,
2013-02-01 09:00:00,21.1,8.6,30.37,SSW,202,16.0,19.0,58,0.00,,---,0.00,209.00,VWS V14.01,2013-02-01 15:00:00,
2013-02-01 09:04:00,18.3,7.5,30.38,SW,220,9.0,15.0,62,0.00,,---,0.00,105.00,VWS V14.01,2013-02-01 15:04:00,
2013-02-01 09:09:00,18.6,7.8,30.38,SSW,208,13.0,17.0,62,0.00,,---,0.00,114.00,VWS V14.01,2013-02-01 15:09:00,
2013-02-01 09:14:00,18.8,7.6,30.38,SSW,198,10.0,17.0,61,0.00,,---,0.00,118.00,VWS V14.01,2013-02-01 15:14:00,
2013-02-01 09:19:00,19.1,7.5,30.38,SSW,200,11.0,17.0,60,0.00,,---,0.00,121.00,VWS V14.01,2013-02-01 15:19:00,
2013-02-01 09:24:00,19.2,8.0,30.38,SSW,202,4.0,17.0,61,0.00,,---,0.00,135.00,VWS V14.01,2013-02-01 15:24:00,
2013-02-01 09:29:00,19.7,7.7,30.38,SSW,196,8.0,17.0,59,0.00,,---,0.00,144.00,VWS V14.01,2013-02-01 15:29:00,
2013-02-01 09:30:00,23.0,5.8,30.36,SW,214,15.0,24.0,47,0.00,,---,0.00,236.00,VWS V14.01,2013-02-01 15:30:00,
2013-02-01 09:34:00,19.9,7.5,30.37,South,189,12.0,19.0,58,0.00,,---,0.00,162.00,VWS V14.01,2013-02-01 15:34:00,
2013-02-01 09:40:00,20.0,8.0,30.37,South,174,7.0,19.0,59,0.00,,---,0.00,172.00,VWS V14.01,2013-02-01 15:40:00,
2013-02-01 09:45:00,20.2,8.2,30.37,South,173,1.0,19.0,59,0.00,,---,0.00,192.00,VWS V14.01,2013-02-01 15:45:00,
2013-02-01 09:50:00,20.5,8.5,30.37,SSE,165,10.0,19.0,59,0.00,,---,0.00,207.00,VWS V14.01,2013-02-01 15:50:00,
2013-02-01 09:55:00,20.6,8.6,30.37,South,185,6.0,19.0,59,0.00,,---,0.00,202.00,VWS V14.01,2013-02-01 15:55:00,
2013-02-01 10:00:00,21.1,8.6,30.37,South,182,8.0,19.0,58,0.00,,---,0.00,209.00,VWS V14.01,2013-02-01 16:00:00,
2013-02-01 10:05:00,21.4,8.1,30.36,SSW,208,12.0,16.0,56,0.00,,---,0.00,227.00,VWS V14.01,2013-02-01 16:05:00,
2013-02-01 10:10:00,21.9,7.8,30.36,SSW,213,12.0,18.0,54,0.00,,---,0.00,221.00,VWS V14.01,2013-02-01 16:10:00,
2013-02-01 10:15:00,22.5,6.2,30.37,SSW,196,7.0,18.0,49,0.00,,---,0.00,230.00,VWS V14.01,2013-02-01 16:15:00,
2013-02-01 10:20:00,22.7,5.5,30.36,SSW,198,10.0,19.0,47,0.00,,---,0.00,185.00,VWS V14.01,2013-02-01 16:20:00,
2013-02-01 10:25:00,23.0,5.3,30.36,South,188,13.0,23.0,46,0.00,,---,0.00,206.00,VWS V14.01,2013-02-01 16:25:00,
2013-02-01 10:30:00,23.0,5.8,30.36,SW,214,15.0,24.0,47,0.00,,---,0.00,236.00,VWS V14.01,2013-02-01 16:30:00,
2013-02-01 10:35:00,22.9,5.7,30.36,South,179,14.0,21.0,47,0.00,,---,0.00,257.00,VWS V14.01,2013-02-01 16:35:00,
2013-02-01 10:40:00,23.0,6.2,30.35,SSW,213,20.0,24.0,48,0.00,,---,0.00,269.00,VWS V14.01,2013-02-01 16:40:00,
2013-02-01 10:45:00,23.2,6.9,30.35,SSW,202,4.0,24.0,49,0.00,,---,0.00,459.00,VWS V14.01,2013-02-01 16:45:00,
2013-02-01 10:50:00,24.1,8.2,30.35,SSW,202,13.0,24.0,50,0.00,,---,0.00,299.00,VWS V14.01,2013-02-01 16:50:00,
2013-02-01 10:55:00,23.9,7.1,30.35,SW,227,8.0,24.0,48,0.00,,---,0.00,392.00,VWS V14.01,2013-02-01 16:55:00,
2013-02-01 11:00:00,24.1,7.3,30.35,SSW,207,18.0,19.0,48,0.00,,---,0.00,374.00,VWS V14.01,2013-02-01 17:00:00,
2013-02-01 11:05:00,23.9,7.1,30.35,SSW,200,15.0,23.0,48,0.00,,---,0.00,318.00,VWS V14.01,2013-02-01 17:05:00,
2013-02-01 11:10:00,24.2,7.8,30.35,SSW,200,12.0,23.0,49,0.00,,---,0.00,443.00,VWS V14.01,2013-02-01 17:10:00,
2013-02-01 11:15:00,24.2,7.3,30.34,SW,236,20.0,23.0,48,0.00,,---,0.00,459.00,VWS V14.01,2013-02-01 17:15:00,
2013-02-01 11:20:00,24.2,8.3,30.34,SSW,213,13.0,23.0,50,0.00,,---,0.00,396.00,VWS V14.01,2013-02-01 17:20:00,
2013-02-01 11:25:00,24.8,8.8,30.34,SSW,204,14.0,23.0,50,0.00,,---,0.00,341.00,VWS V14.01,2013-02-01 17:25:00,
2013-02-01 11:30:00,25.1,9.5,30.34,SSW,192,6.0,6.0,51,0.00,,---,0.00,323.00,VWS V14.01,2013-02-01 17:30:00,
2013-02-01 11:35:00,25.0,8.1,30.33,SW,228,3.0,22.0,48,0.00,,---,0.00,309.00,VWS V14.01,2013-02-01 17:35:00,
2013-02-01 11:40:00,25.3,7.9,30.33,SSW,212,11.0,22.0,47,0.00,,---,0.00,338.00,VWS V14.01,2013-02-01 17:40:00,
2013-02-01 11:45:00,25.3,7.9,30.33,South,191,10.0,23.0,47,0.00,,---,0.00,330.00,VWS V14.01,2013-02-01 17:45:00,
2013-02-01 11:50:00,25.6,8.6,30.33,SSW,207,7.0,23.0,48,0.00,,---,0.00,350.00,VWS V14.01,2013-02-01 17:50:00,
2013-02-01 11:55:00,25.7,8.3,30.32,South,176,11.0,23.0,47,0.00,,---,0.00,329.00,VWS V14.01,2013-02-01 17:55:00,
2013-02-01 12:00:00,26.0,8.6,30.32,SSW,212,18.0,21.0,47,0.00,,---,0.00,334.00,VWS V14.01,2013-02-01 18:00:00,
2013-02-01 12:05:00,25.8,7.9,30.32,SSW,193,24.0,24.0,46,0.00,,---,0.00,330.00,VWS V14.01,2013-02-01 18:05:00,
2013-02-01 12:10:00,26.0,8.1,30.31,SSW,193,5.0,24.0,46,0.00,,---,0.00,327.00,VWS V14.01,2013-02-01 18:10:00,
2013-02-01 12:15:00,26.0,7.6,30.31,SSW,200,16.0,24.0,45,0.00,,---,0.00,316.00,VWS V14.01,2013-02-01 18:15:00,
2013-02-01 12:20:00,26.0,8.1,30.30,SSE,168,21.0,24.0,46,0.00,,---,0.00,315.00,VWS V14.01,2013-02-01 18:20:00,
2013-02-01 12:25:00,26.1,7.7,30.30,SSW,202,7.0,24.0,45,0.00,,---,0.00,308.00,VWS V14.01,2013-02-01 18:25:00,
2013-02-01 12:30:00,26.4,8.9,30.29,SSW,205,15.0,19.0,47,0.00,,---,0.00,308.00,VWS V14.01,2013-02-01 18:30:00,
2013-02-01 12:35:00,26.7,8.7,30.29,SW,214,14.0,25.0,46,0.00,,---,0.00,309.00,VWS V14.01,2013-02-01 18:35:00,
2013-02-01 12:40:00,27.0,9.5,30.29,SSW,207,16.0,25.0,47,0.00,,---,0.00,316.00,VWS V14.01,2013-02-01 18:40:00,
2013-02-01 12:45:00,27.2,8.7,30.28,South,173,13.0,25.0,45,0.00,,---,0.00,325.00,VWS V14.01,2013-02-01 18:45:00,
2013-02-01 12:50:00,27.5,8.5,30.28,SW,217,18.0,25.0,44,0.00,,---,0.00,315.00,VWS V14.01,2013-02-01 18:50:00,
2013-02-01 12:55:00,27.6,8.0,30.27,SW,215,13.0,25.0,43,0.00,,---,0.00,332.00,VWS V14.01,2013-02-01 18:55:00,
2013-02-01 13:00:00,27.9,8.3,30.27,South,182,10.0,18.0,43,0.00,,---,0.00,315.00,VWS V14.01,2013-02-01 19:00:00,
2013-02-01 13:05:00,28.4,9.8,30.27,WSW,238,12.0,21.0,45,0.00,,---,0.00,306.00,VWS V14.01,2013-02-01 19:05:00,
2013-02-01 13:10:00,28.5,9.9,30.26,SSW,199,12.0,21.0,45,0.00,,---,0.00,295.00,VWS V14.01,2013-02-01 19:10:00,
2013-02-01 13:15:00,28.8,9.6,30.26,SW,227,16.0,21.0,44,0.00,,---,0.00,301.00,VWS V14.01,2013-02-01 19:15:00,
2013-02-01 13:20:00,29.1,10.4,30.25,SSW,207,7.0,21.0,45,0.00,,---,0.00,299.00,VWS V14.01,2013-02-01 19:20:00,
2013-02-01 13:25:00,29.4,10.7,30.25,South,178,6.0,21.0,45,0.00,,---,0.00,297.00,VWS V14.01,2013-02-01 19:25:00,
2013-02-01 13:30:00,29.7,11.0,30.24,SSW,192,12.0,15.0,45,0.00,,---,0.00,299.00,VWS V14.01,2013-02-01 19:30:00,
2013-02-01 13:35:00,29.8,11.1,30.24,SSW,209,5.0,15.0,45,0.00,,---,0.00,294.00,VWS V14.01,2013-02-01 19:35:00,
2013-02-01 13:40:00,30.1,11.3,30.24,SSW,200,10.0,18.0,45,0.00,,---,0.00,279.00,VWS V14.01,2013-02-01 19:40:00,
2013-02-01 13:45:00,30.0,11.2,30.23,SSW,201,10.0,21.0,45,0.00,,---,0.00,272.00,VWS V14.01,2013-02-01 19:45:00,
2013-02-01 13:50:00,30.1,11.3,30.22,South,171,12.0,21.0,45,0.00,,---,0.00,257.00,VWS V14.01,2013-02-01 19:50:00,
2013-02-01 13:55:00,30.3,11.5,30.22,SSW,210,8.0,21.0,45,0.00,,---,0.00,251.00,VWS V14.01,2013-02-01 19:55:00,
2013-02-01 14:00:00,30.3,11.0,30.20,SSW,208,15.0,24.0,44,0.00,,---,0.00,276.00,VWS V14.01,2013-02-01 20:00:00,
2013-02-01 14:05:00,30.6,12.3,30.20,South,180,19.0,24.0,46,0.00,,---,0.00,281.00,VWS V14.01,2013-02-01 20:05:00,
2013-02-01 14:10:00,30.7,11.9,30.19,SSE,164,23.0,24.0,45,0.00,,---,0.00,283.00,VWS V14.01,2013-02-01 20:10:00,
2013-02-01 14:15:00,30.9,11.6,30.19,South,189,18.0,24.0,44,0.00,,---,0.00,267.00,VWS V14.01,2013-02-01 20:15:00,
2013-02-01 14:20:00,31.2,11.8,30.19,SSW,194,7.0,24.0,44,0.00,,---,0.00,251.00,VWS V14.01,2013-02-01 20:20:00,
2013-02-01 14:25:00,31.6,12.2,30.20,SSW,212,6.0,24.0,44,0.00,,---,0.00,237.00,VWS V14.01,2013-02-01 20:25:00,
2013-02-01 14:30:00,31.9,13.0,30.20,SSW,211,5.0,10.0,45,0.00,,---,0.00,237.00,VWS V14.01,2013-02-01 20:30:00,
2013-02-01 14:35:00,32.5,13.5,30.20,SSW,202,10.0,14.0,45,0.00,,---,0.00,239.00,VWS V14.01,2013-02-01 20:35:00,
2013-02-01 14:40:00,32.9,13.9,30.20,South,178,7.0,18.0,45,0.00,,---,0.00,234.00,VWS V14.01,2013-02-01 20:40:00,
2013-02-01 14:45:00,33.4,12.8,30.20,SSW,194,9.0,18.0,42,0.00,,---,0.00,199.00,VWS V14.01,2013-02-01 20:45:00,
2013-02-01 14:50:00,33.7,12.5,30.20,SSW,212,10.0,18.0,41,0.00,,---,0.00,142.00,VWS V14.01,2013-02-01 20:50:00,
2013-02-01 14:55:00,34.1,11.8,30.20,SSW,207,5.0,20.0,39,0.00,,---,0.00,113.00,VWS V14.01,2013-02-01 20:55:00,
2013-02-01 15:00:00,34.4,12.0,30.19,South,189,14.0,14.0,39,0.00,,---,0.00,93.00,VWS V14.01,2013-02-01 21:00:00,
2013-02-01 15:05:00,34.6,12.2,30.19,SSW,200,8.0,21.0,39,0.00,,---,0.00,93.00,VWS V14.01,2013-02-01 21:05:00,
2013-02-01 15:10:00,35.2,12.1,30.18,SSW,213,13.0,21.0,38,0.00,,---,0.00,98.00,VWS V14.01,2013-02-01 21:10:00,
2013-02-01 15:15:00,35.3,12.8,30.18,South,188,14.0,21.0,39,0.00,,---,0.00,104.00,VWS V14.01,2013-02-01 21:15:00,
2013-02-01 15:20:00,35.3,12.2,30.18,South,181,11.0,21.0,38,0.00,,---,0.00,121.00,VWS V14.01,2013-02-01 21:20:00,
2013-02-01 15:25:00,35.8,12.7,30.18,South,188,11.0,21.0,38,0.00,,---,0.00,125.00,VWS V14.01,2013-02-01 21:25:00,
2013-02-01 15:30:00,35.8,13.3,30.18,SW,217,7.0,17.0,39,0.00,,---,0.00,107.00,VWS V14.01,2013-02-01 21:30:00,
2013-02-01 15:36:00,35.5,12.4,30.18,South,181,12.0,20.0,38,0.00,,---,0.00,84.00,VWS V14.01,2013-02-01 21:36:00,
2013-02-01 15:41:00,35.6,12.5,30.18,South,182,13.0,20.0,38,0.00,,---,0.00,84.00,VWS V14.01,2013-02-01 21:41:00,
2013-02-01 15:46:00,36.0,13.5,30.18,SW,219,7.0,20.0,39,0.00,,---,0.00,95.00,VWS V14.01,2013-02-01 21:46:00,
2013-02-01 15:51:00,35.5,13.6,30.18,South,171,8.0,20.0,40,0.00,,---,0.00,114.00,VWS V14.01,2013-02-01 21:51:00,
2013-02-01 15:56:00,35.3,14.0,30.17,SSW,195,15.0,20.0,41,0.00,,---,0.00,132.00,VWS V14.01,2013-02-01 21:56:00,
2013-02-01 16:00:00,36.6,13.4,30.16,SSW,197,9.0,19.0,38,0.00,,---,0.00,158.00,VWS V14.01,2013-02-01 22:00:00,
2013-02-01 16:01:00,35.5,14.1,30.17,SSW,198,13.0,16.0,41,0.00,,---,0.00,125.00,VWS V14.01,2013-02-01 22:01:00,
2013-02-01 16:06:00,35.6,14.2,30.16,SW,217,5.0,18.0,41,0.00,,---,0.00,163.00,VWS V14.01,2013-02-01 22:06:00,
2013-02-01 16:11:00,35.9,13.9,30.17,South,179,10.0,20.0,40,0.00,,---,0.00,250.00,VWS V14.01,2013-02-01 22:11:00,
2013-02-01 16:16:00,36.2,14.2,30.16,SSW,205,15.0,20.0,40,0.00,,---,0.00,315.00,VWS V14.01,2013-02-01 22:16:00,
2013-02-01 16:21:00,36.6,14.6,30.17,SSW,202,10.0,20.0,40,0.00,,---,0.00,352.00,VWS V14.01,2013-02-01 22:21:00,
2013-02-01 16:26:00,36.9,15.4,30.17,SSW,208,4.0,20.0,41,0.00,,---,0.00,355.00,VWS V14.01,2013-02-01 22:26:00,
2013-02-01 16:30:00,35.5,13.6,30.14,SSE,163,6.0,18.0,40,0.00,,---,0.00,49.00,VWS V14.01,2013-02-01 22:30:00,
2013-02-01 16:31:00,37.3,15.2,30.17,South,183,14.0,14.0,40,0.00,,---,0.00,325.00,VWS V14.01,2013-02-01 22:31:00,
2013-02-01 16:36:00,36.9,13.7,30.17,West,269,6.0,18.0,38,0.00,,---,0.00,287.00,VWS V14.01,2013-02-01 22:36:00,
2013-02-01 16:41:00,36.8,13.6,30.17,SSW,205,9.0,18.0,38,0.00,,---,0.00,258.00,VWS V14.01,2013-02-01 22:41:00,
2013-02-01 16:46:00,36.8,13.6,30.16,South,186,9.0,19.0,38,0.00,,---,0.00,230.00,VWS V14.01,2013-02-01 22:46:00,
2013-02-01 16:51:00,36.8,13.6,30.16,South,172,8.0,19.0,38,0.00,,---,0.00,200.00,VWS V14.01,2013-02-01 22:51:00,
2013-02-01 16:56:00,36.8,13.0,30.16,SSW,196,10.0,19.0,37,0.00,,---,0.00,171.00,VWS V14.01,2013-02-01 22:56:00,
2013-02-01 17:00:00,33.7,13.6,30.14,South,180,12.0,15.0,43,0.00,,---,0.00,0.00,VWS V14.01,2013-02-01 23:00:00,
2013-02-01 17:01:00,36.6,14.0,30.16,SSW,194,7.0,15.0,39,0.00,,---,0.00,158.00,VWS V14.01,2013-02-01 23:01:00,
2013-02-01 17:06:00,36.5,13.3,30.16,SSW,202,6.0,18.0,38,0.00,,---,0.00,128.00,VWS V14.01,2013-02-01 23:06:00,
2013-02-01 17:11:00,36.5,13.9,30.16,SSW,213,8.0,18.0,39,0.00,,---,0.00,113.00,VWS V14.01,2013-02-01 23:11:00,
2013-02-01 17:16:00,36.3,13.1,30.15,South,182,3.0,18.0,38,0.00,,---,0.00,91.00,VWS V14.01,2013-02-01 23:16:00,
2013-02-01 17:21:00,36.0,12.3,30.15,SW,223,7.0,18.0,37,0.00,,---,0.00,76.00,VWS V14.01,2013-02-01 23:21:00,
2013-02-01 17:26:00,35.9,13.4,30.15,South,176,11.0,18.0,39,0.00,,---,0.00,60.00,VWS V14.01,2013-02-01 23:26:00,
2013-02-01 17:30:00,31.6,14.2,30.13,South,169,9.0,13.0,48,0.00,,---,0.00,0.00,VWS V14.01,2013-02-01 23:30:00,
2013-02-01 17:31:00,35.5,13.6,30.14,SSW,195,7.0,10.0,40,0.00,,---,0.00,44.00,VWS V14.01,2013-02-01 23:31:00,
2013-02-01 17:36:00,35.0,13.7,30.14,SSW,213,7.0,12.0,41,0.00,,---,0.00,33.00,VWS V14.01,2013-02-01 23:36:00,
2013-02-01 17:41:00,34.7,13.4,30.14,WSW,237,5.0,14.0,41,0.00,,---,0.00,21.00,VWS V14.01,2013-02-01 23:41:00,
2013-02-01 17:46:00,34.4,13.1,30.14,SSW,197,6.0,14.0,41,0.00,,---,0.00,16.00,VWS V14.01,2013-02-01 23:46:00,
2013-02-01 17:51:00,34.1,12.9,30.14,South,178,13.0,15.0,41,0.00,,---,0.00,7.00,VWS V14.01,2013-02-01 23:51:00,
2013-02-01 17:56:00,33.8,13.7,30.14,SSW,206,7.0,15.0,43,0.00,,---,0.00,0.00,VWS V14.01,2013-02-01 23:56:00,
2013-02-01 18:00:00,30.4,14.0,30.14,SSE,168,8.0,13.0,50,0.00,,---,0.00,0.00,VWS V14.01,2013-02-02 00:00:00,
2013-02-01 18:01:00,33.5,13.4,30.14,SSW,196,9.0,13.0,43,0.00,,---,0.00,0.00,VWS V14.01,2013-02-02 00:01:00,
2013-02-01 18:06:00,33.5,13.4,30.14,SSW,195,7.0,13.0,43,0.00,,---,0.00,0.00,VWS V14.01,2013-02-02 00:06:00,
2013-02-01 18:11:00,33.2,13.7,30.14,South,176,6.0,13.0,44,0.00,,---,0.00,0.00,VWS V14.01,2013-02-02 00:11:00,
2013-02-01 18:16:00,32.9,14.4,30.14,South,178,6.0,13.0,46,0.00,,---,0.00,0.00,VWS V14.01,2013-02-02 00:16:00,
2013-02-01 18:21:00,32.4,14.4,30.14,South,174,6.0,13.0,47,0.00,,---,0.00,0.00,VWS V14.01,2013-02-02 00:21:00,
2013-02-01 18:26:00,31.9,14.4,30.13,South,183,5.0,13.0,48,0.00,,---,0.00,0.00,VWS V14.01,2013-02-02 00:26:00,
2013-02-01 18:30:00,29.5,13.6,30.14,SSW,211,6.0,13.0,51,0.00,,---,0.00,0.00,VWS V14.01,2013-02-02 00:30:00,
2013-02-01 18:31:00,31.5,14.1,30.13,SSE,167,9.0,10.0,48,0.00,,---,0.00,0.00,VWS V14.01,2013-02-02 00:31:00,
2013-02-01 18:36:00,31.2,14.3,30.14,SSE,168,9.0,12.0,49,0.00,,---,0.00,0.00,VWS V14.01,2013-02-02 00:36:00,
2013-02-01 18:41:00,31.0,14.1,30.14,South,188,8.0,13.0,49,0.00,,---,0.00,0.00,VWS V14.01,2013-02-02 00:41:00,
2013-02-01 18:46:00,30.9,14.0,30.13,South,178,8.0,13.0,49,0.00,,---,0.00,0.00,VWS V14.01,2013-02-02 00:46:00,
2013-02-01 18:51:00,30.7,13.8,30.14,South,184,7.0,13.0,49,0.00,,---,0.00,0.00,VWS V14.01,2013-02-02 00:51:00,
2013-02-01 18:56:00,30.6,13.7,30.14,South,180,6.0,13.0,49,0.00,,---,0.00,0.00,VWS V14.01,2013-02-02 00:56:00,
2013-02-01 19:00:00,29.5,13.2,30.15,South,186,7.0,13.0,50,0.00,,---,0.00,0.00,VWS V14.01,2013-02-02 01:00:00,
2013-02-01 19:01:00,30.3,13.9,30.14,South,176,8.0,10.0,50,0.00,,---,0.00,0.00,VWS V14.01,2013-02-02 01:01:00,
2013-02-01 19:06:00,30.1,13.3,30.14,South,174,6.0,12.0,49,0.00,,---,0.00,0.00,VWS V14.01,2013-02-02 01:06:00,
2013-02-01 19:11:00,30.1,13.7,30.14,SSE,167,9.0,12.0,50,0.00,,---,0.00,0.00,VWS V14.01,2013-02-02 01:11:00,
2013-02-01 19:16:00,29.8,13.9,30.14,SSE,168,6.0,12.0,51,0.00,,---,0.00,0.00,VWS V14.01,2013-02-02 01:16:00,
2013-02-01 19:21:00,29.7,13.8,30.14,SSE,164,10.0,12.0,51,0.00,,---,0.00,0.00,VWS V14.01,2013-02-02 01:21:00,
2013-02-01 19:26:00,29.5,13.6,30.14,South,182,11.0,13.0,51,0.00,,---,0.00,0.00,VWS V14.01,2013-02-02 01:26:00,
2013-02-01 19:30:00,29.0,13.1,30.14,South,186,6.0,10.0,51,0.00,,---,0.00,0.00,VWS V14.01,2013-02-02 01:30:00,
2013-02-01 19:31:00,29.4,13.5,30.14,SSW,196,10.0,10.0,51,0.00,,---,0.00,0.00,VWS V14.01,2013-02-02 01:31:00,
2013-02-01 19:36:00,29.5,13.2,30.14,SSE,163,7.0,12.0,50,0.00,,---,0.00,0.00,VWS V14.01,2013-02-02 01:36:00,
2013-02-01 19:41:00,29.7,13.4,30.15,South,184,7.0,13.0,50,0.00,,---,0.00,0.00,VWS V14.01,2013-02-02 01:41:00,
2013-02-01 19:46:00,29.7,13.4,30.15,SSW,205,7.0,13.0,50,0.00,,---,0.00,0.00,VWS V14.01,2013-02-02 01:46:00,
2013-02-01 19:51:00,29.7,13.4,30.15,South,172,7.0,13.0,50,0.00,,---,0.00,0.00,VWS V14.01,2013-02-02 01:51:00,
2013-02-01 19:56:00,29.5,13.2,30.15,SSW,195,6.0,13.0,50,0.00,,---,0.00,0.00,VWS V14.01,2013-02-02 01:56:00,
2013-02-01 20:00:00,29.0,13.6,30.14,South,186,3.0,9.0,52,0.00,,---,0.00,0.00,VWS V14.01,2013-02-02 02:00:00,
2013-02-01 20:01:00,29.5,13.2,30.15,South,179,8.0,8.0,50,0.00,,---,0.00,0.00,VWS V14.01,2013-02-02 02:01:00,
2013-02-01 20:06:00,29.4,13.1,30.14,SSE,168,7.0,10.0,50,0.00,,---,0.00,0.00,VWS V14.01,2013-02-02 02:06:00,
2013-02-01 20:11:00,29.3,13.0,30.15,SSE,163,6.0,10.0,50,0.00,,---,0.00,0.00,VWS V14.01,2013-02-02 02:11:00,
2013-02-01 20:16:00,29.1,12.8,30.14,SSE,168,8.0,10.0,50,0.00,,---,0.00,0.00,VWS V14.01,2013-02-02 02:16:00,
2013-02-01 20:21:00,29.0,12.7,30.14,South,169,5.0,10.0,50,0.00,,---,0.00,0.00,VWS V14.01,2013-02-02 02:21:00,
2013-02-01 20:26:00,29.0,13.1,30.14,SSE,165,7.0,10.0,51,0.00,,---,0.00,0.00,VWS V14.01,2013-02-02 02:26:00,
2013-02-01 20:30:00,30.0,14.5,30.14,SSW,201,5.0,9.0,52,0.00,,---,0.00,0.00,VWS V14.01,2013-02-02 02:30:00,
2013-02-01 20:32:00,29.0,13.6,30.14,SSE,166,5.0,9.0,52,0.00,,---,0.00,0.00,VWS V14.01,2013-02-02 02:32:00,
2013-02-01 20:37:00,28.8,13.0,30.14,South,175,5.0,9.0,51,0.00,,---,0.00,0.00,VWS V14.01,2013-02-02 02:37:00,
2013-02-01 20:42:00,29.0,13.6,30.14,SSE,167,6.0,9.0,52,0.00,,---,0.00,0.00,VWS V14.01,2013-02-02 02:42:00,
2013-02-01 20:47:00,29.0,13.1,30.14,South,180,6.0,9.0,51,0.00,,---,0.00,0.00,VWS V14.01,2013-02-02 02:47:00,
2013-02-01 20:52:00,29.0,13.6,30.14,South,178,6.0,9.0,52,0.00,,---,0.00,0.00,VWS V14.01,2013-02-02 02:52:00,
2013-02-01 20:57:00,29.0,13.6,30.14,South,172,5.0,9.0,52,0.00,,---,0.00,0.00,VWS V14.01,2013-02-02 02:57:00,
2013-02-01 21:00:00,31.3,15.3,30.14,SSW,204,13.0,13.0,51,0.00,,---,0.00,0.00,VWS V14.01,2013-02-02 03:00:00,
2013-02-01 21:02:00,29.0,13.6,30.14,South,186,3.0,6.0,52,0.00,,---,0.00,0.00,VWS V14.01,2013-02-02 03:02:00,
2013-02-01 21:07:00,29.0,13.6,30.14,South,186,4.0,6.0,52,0.00,,---,0.00,0.00,VWS V14.01,2013-02-02 03:07:00,
2013-02-01 21:12:00,29.1,13.7,30.15,SSW,201,6.0,8.0,52,0.00,,---,0.00,0.00,VWS V14.01,2013-02-02 03:12:00,
2013-02-01 21:17:00,29.4,14.0,30.15,SSW,203,5.0,8.0,52,0.00,,---,0.00,0.00,VWS V14.01,2013-02-02 03:17:00,
2013-02-01 21:22:00,29.7,14.2,30.15,SSW,196,4.0,8.0,52,0.00,,---,0.00,0.00,VWS V14.01,2013-02-02 03:22:00,
2013-02-01 21:27:00,29.8,14.3,30.14,SSW,200,7.0,9.0,52,0.00,,---,0.00,0.00,VWS V14.01,2013-02-02 03:27:00,
2013-02-01 21:30:00,30.9,15.8,30.15,SW,236,7.0,13.0,53,0.00,,---,0.00,0.00,VWS V14.01,2013-02-02 03:30:00,
2013-02-01 21:32:00,30.1,14.2,30.14,South,175,7.0,9.0,51,0.00,,---,0.00,0.00,VWS V14.01,2013-02-02 03:32:00,
2013-02-01 21:37:00,30.3,14.4,30.14,South,181,3.0,12.0,51,0.00,,---,0.00,0.00,VWS V14.01,2013-02-02 03:37:00,
2013-02-01 21:42:00,30.6,14.6,30.14,SW,221,4.0,12.0,51,0.00,,---,0.00,0.00,VWS V14.01,2013-02-02 03:42:00,
2013-02-01 21:47:00,30.9,14.9,30.14,SSW,211,5.0,12.0,51,0.00,,---,0.00,0.00,VWS V14.01,2013-02-02 03:47:00,
2013-02-01 21:52:00,31.0,15.0,30.14,SSW,200,6.0,12.0,51,0.00,,---,0.00,0.00,VWS V14.01,2013-02-02 03:52:00,
2013-02-01 21:57:00,31.2,15.2,30.13,SSW,200,10.0,12.0,51,0.00,,---,0.00,0.00,VWS V14.01,2013-02-02 03:57:00,
2013-02-01 22:00:00,30.9,17.1,30.14,SSW,210,5.0,9.0,56,0.00,,---,0.00,0.00,VWS V14.01,2013-02-02 04:00:00,
2013-02-01 22:02:00,31.3,14.8,30.14,South,182,9.0,13.0,50,0.00,,---,0.00,0.00,VWS V14.01,2013-02-02 04:02:00,
2013-02-01 22:07:00,31.3,15.3,30.14,SW,215,6.0,13.0,51,0.00,,---,0.00,0.00,VWS V14.01,2013-02-02 04:07:00,
2013-02-01 22:12:00,31.2,15.6,30.14,SSW,209,8.0,13.0,52,0.00,,---,0.00,0.00,VWS V14.01,2013-02-02 04:12:00,
2013-02-01 22:17:00,31.2,15.6,30.14,SSW,212,4.0,13.0,52,0.00,,---,0.00,0.00,VWS V14.01,2013-02-02 04:17:00,
2013-02-01 22:22:00,31.0,15.4,30.14,SSW,192,5.0,13.0,52,0.00,,---,0.00,0.00,VWS V14.01,2013-02-02 04:22:00,
2013-02-01 22:27:00,30.9,15.8,30.14,SSW,203,7.0,13.0,53,0.00,,---,0.00,0.00,VWS V14.01,2013-02-02 04:27:00,
2013-02-01 22:30:00,31.9,17.6,30.13,SSW,208,7.0,11.0,55,0.00,,---,0.00,0.00,VWS V14.01,2013-02-02 04:30:00,
2013-02-01 22:32:00,30.9,15.8,30.15,SW,219,5.0,8.0,53,0.00,,---,0.00,0.00,VWS V14.01,2013-02-02 04:32:00,
2013-02-01 22:37:00,30.7,16.5,30.14,SW,216,3.0,8.0,55,0.00,,---,0.00,0.00,VWS V14.01,2013-02-02 04:37:00,
2013-02-01 22:42:00,30.9,16.6,30.14,SSW,208,6.0,8.0,55,0.00,,---,0.00,0.00,VWS V14.01,2013-02-02 04:42:00,
2013-02-01 22:47:00,30.7,16.5,30.14,SSW,207,9.0,9.0,55,0.00,,---,0.00,0.00,VWS V14.01,2013-02-02 04:47:00,
2013-02-01 22:52:00,30.7,16.5,30.14,SSW,209,6.0,9.0,55,0.00,,---,0.00,0.00,VWS V14.01,2013-02-02 04:52:00,
2013-02-01 22:57:00,30.9,16.6,30.14,SSW,201,8.0,9.0,55,0.00,,---,0.00,0.00,VWS V14.01,2013-02-02 04:57:00,
2013-02-01 23:00:00,30.9,17.1,30.14,SSW,210,5.0,9.0,56,0.00,,---,0.00,0.00,VWS V14.01,2013-02-02 05:00:00,
2013-02-01 23:01:00,31.0,17.2,30.14,SW,230,9.0,9.0,56,0.00,,---,0.00,0.00,VWS V14.01,2013-02-02 05:01:00,
2013-02-01 23:06:00,31.2,16.9,30.14,SSW,211,2.0,9.0,55,0.00,,---,0.00,0.00,VWS V14.01,2013-02-02 05:06:00,
2013-02-01 23:11:00,31.2,16.9,30.14,SW,221,7.0,9.0,55,0.00,,---,0.00,0.00,VWS V14.01,2013-02-02 05:11:00,
2013-02-01 23:16:00,31.3,17.0,30.14,SW,215,3.0,9.0,55,0.00,,---,0.00,0.00,VWS V14.01,2013-02-02 05:16:00,
2013-02-01 23:21:00,31.6,17.3,30.13,SW,218,9.0,11.0,55,0.00,,---,0.00,0.00,VWS V14.01,2013-02-02 05:21:00,
2013-02-01 23:26:00,31.8,17.5,30.13,SSW,207,6.0,11.0,55,0.00,,---,0.00,0.00,VWS V14.01,2013-02-02 05:26:00,
2013-02-01 23:30:00,33.7,18.8,30.13,WSW,238,7.0,11.0,54,0.00,,---,0.00,0.00,VWS V14.01,2013-02-02 05:30:00,
2013-02-01 23:31:00,31.9,17.6,30.13,SW,230,8.0,11.0,55,0.00,,---,0.00,0.00,VWS V14.01,2013-02-02 05:31:00,
2013-02-01 23:36:00,32.2,17.9,30.13,SSW,211,3.0,11.0,55,0.00,,---,0.00,0.00,VWS V14.01,2013-02-02 05:36:00,
2013-02-01 23:41:00,32.5,18.1,30.13,SW,215,8.0,11.0,55,0.00,,---,0.00,0.00,VWS V14.01,2013-02-02 05:41:00,
2013-02-01 23:46:00,32.9,18.1,30.13,SW,232,7.0,11.0,54,0.00,,---,0.00,0.00,VWS V14.01,2013-02-02 05:46:00,
2013-02-01 23:51:00,33.1,18.3,30.13,SSW,197,8.0,11.0,54,0.00,,---,0.00,0.00,VWS V14.01,2013-02-02 05:51:00,
2013-02-01 23:56:00,33.2,18.4,30.13,South,183,5.0,11.0,54,0.00,,---,0.00,0.00,VWS V14.01,2013-02-02 05:56:00,